AirNav   Free Bose QuietComfort 20
 
 860 users online  

PN80 West Penn Hospital Heliport
Pittsburgh, Pennsylvania, USA

GOING TO PITTSBURGH?


FAA INFORMATION EFFECTIVE 05 DECEMBER 2019

Location

FAA Identifier: PN80
Lat/Long: 40-27-38.7500N 079-56-48.0300W
40-27.645833N 079-56.800500W
40.4607639,-79.9466750
(estimated)
Elevation: 1117 ft. / 340 m (estimated)
Variation: 08W (1985)
Time zone: UTC -5 (UTC -4 during Daylight Saving Time)
Zip code: 15224

Heliport Operations

Heliport use: Private use, MEDICAL USE.
Activation date: 06/1971
Control tower: no
ARTCC: CLEVELAND CENTER
FSS: ALTOONA FLIGHT SERVICE STATION
Attendance: CONTINUOUS
Wind indicator: yes
Segmented circle: no
Lights: RWY LGTS FOR OWNER'S USE ONLY.

Heliport Communications

WX AWOS-A at 42PN (2.6 nm W): PHONE 412-442-2213
WX ASOS at AGC (6 nm S): PHONE 412-466-8968
WX ASOS at PIT (13 nm W): PHONE 412-472-0145
WX AWOS-3 at FWQ (16 nm S): 118.475 (724-379-5815)
WX AWOS-3PT at BTP (19 nm N): 121.450 (724-586-6434)

Nearby radio navigation aids

VOR radial/distance  VOR name  Freq  Var
AGCr031/11.7ALLEGHENY VOR/DME110.0009W
EWCr159/25.0ELLWOOD CITY VOR/DME115.8008W
HLGr074/30.9WHEELING VOR/DME112.2007W
IHDr323/39.7INDIAN HEAD VORTAC108.2006W

 
NDB name  Hdg/Dist  Freq  Var  ID
CASTLE157/39.927209WUCP ..- -.-. .--.

Heliport Services

Airframe service: NONE
Powerplant service: NONE

Runway Information

Helipad H1

Dimensions: 60 x 60 ft. / 18 x 18 m
Surface: concrete
Runway edge lights: FLD
Runway edge markings: HOSPITAL HELIPORT MARKINGS - FAIR.
Latitude: 40-27.645833N
Longitude: 079-56.800500W
Elevation: 1117.0 ft.
Traffic pattern: leftleft
Obstructions: bldgs, 40 ft. from runway, 6:1 slope to clear

Heliport Ownership and Management from official FAA records

Ownership: Privately-owned
Owner: WEST PENN HOSPITAL
4800 FRIENDSHIP AVE
PITTSBURGH, PA 15224
Phone 412-578-5000
Manager: JAMES PALAFOUTAS
4800 FRIENDSHIP AVE
PITTSBURGH, PA 15224
Phone (412) 359-6635

Heliport Operational Statistics

Aircraft operations: avg 40/month *
100% transient general aviation
* for 12-month period ending 15 December 1981

Additional Remarks

FOR CD CTC PITTSBURGH APCH AT 412-472-5591

Instrument Procedures

There are no published instrument procedures at PN80.

Some nearby airports with instrument procedures:

KAGC - Allegheny County Airport (6 nm S)
KPIT - Pittsburgh International Airport (13 nm W)
G05 - Finleyville Airpark (13 nm S)
KFWQ - Rostraver Airport (16 nm S)
KBTP - Pittsburgh/Butler Regional Airport (19 nm N)
 
Loc | Ops | Rwys | IFR | FBO | Links
Com | Nav | Svcs | Stats | Notes
Area around PN80 (West Penn Hospital Heliport)
 
Road maps at: MapQuest Bing Google
 
Aerial photo
No photo
 
Sectional chart

 
Airport distance calculator
Flying to West Penn Hospital Heliport? Find the distance to fly.

From to PN80

Sunrise and sunset
Times for 12-Dec-2019
 Local
(UTC-5)
 Zulu
(UTC)
Morning civil twilight07:0412:04
Sunrise07:3512:35
Sunset16:5221:52
Evening civil twilight17:2322:23

Current date and time
Zulu (UTC)  13-Dec-2019 01:03:22
Local (UTC-5)  12-Dec-2019 20:03:22
 
METAR
KAGC 
7nm S 
130053Z 12007KT 10SM CLR 00/M07 A3035 RMK AO2 SLP301 T00001072
KPIT 
15nm W 
130051Z 12006KT 10SM OVC220 M01/M08 A3034 RMK AO2 SLP300 T10111078
KP53 
16nm S 
130056Z AUTO 00000KT M06/M08 A3002 RMK AO1 SLP180 P0001 T10611083
KBTP 
18nm N 
130056Z AUTO 11009KT 10SM CLR M01/M07 A3036 RMK AO2 SLP307 T10111072 FZRANO
TAF
KAGC 
7nm S 
121722Z 1218/1318 16005KT P6SM BKN250 FM131600 00000KT P6SM VCSH BKN050
KPIT 
15nm W 
122134Z 1222/1324 16007KT P6SM OVC250 FM131800 14003KT P6SM VCSH OVC020
NOTAMs
Click for the latest NOTAMs
NOTAMs are issued by the DoD/FAA and will open in a separate window not controlled by AirNav.

 

 
 

Would you like to see your business listed on this page?

 If your business provides an interesting product or service to pilots, flight crews, aircraft, or users of the West Penn Hospital Heliport, you should consider listing it here.  To start the listing process, click on the button below
 
Add a business
 

Other Pages about West Penn Hospital Heliport

Update a link
 
Copyright © AirNav, LLC. All rights reserved. Privacy Policy  Contact